createdAt,value
2022-10-06T00:01:36.776Z,101525.19
2022-10-06T00:04:03.451Z,101519.13
2022-10-06T00:06:30.086Z,101510.69
2022-10-06T00:08:56.786Z,101520.75
2022-10-06T00:11:23.532Z,101515.50
2022-10-06T00:13:50.498Z,101517.28
2022-10-06T00:16:21.792Z,101510.84
2022-10-06T00:18:48.586Z,101516.75
2022-10-06T00:21:15.637Z,101508.81
2022-10-06T00:23:42.505Z,101516.38
2022-10-06T00:26:16.911Z,101517.34
2022-10-06T00:28:48.011Z,101518.44
2022-10-06T00:31:16.335Z,101515.69
2022-10-06T00:33:43.083Z,101511.34
2022-10-06T00:36:09.792Z,101505.56
2022-10-06T00:38:36.550Z,101502.91
2022-10-06T00:41:03.913Z,101508.19
2022-10-06T00:43:49.022Z,101503.44
2022-10-06T00:46:46.230Z,101509.00
2022-10-06T00:49:13.036Z,101511.38
2022-10-06T00:51:43.826Z,101503.34
2022-10-06T00:54:11.673Z,101501.53
2022-10-06T00:56:40.481Z,101502.81
2022-10-06T00:59:16.008Z,101489.94
2022-10-06T01:01:51.554Z,101500.69
2022-10-06T01:04:18.546Z,101498.41
2022-10-06T01:06:49.934Z,101492.91
2022-10-06T01:09:19.806Z,101496.56
2022-10-06T01:11:48.599Z,101487.38
2022-10-06T01:14:15.839Z,101490.41
2022-10-06T01:16:46.426Z,101487.69
2022-10-06T01:19:55.373Z,101487.69
2022-10-06T01:22:55.662Z,101485.63
2022-10-06T01:25:22.652Z,101487.56
2022-10-06T01:27:53.879Z,101482.63
2022-10-06T01:30:39.309Z,101482.78
2022-10-06T01:33:06.035Z,101480.25
2022-10-06T01:35:33.496Z,101488.41
2022-10-06T01:38:00.670Z,101486.59
2022-10-06T01:40:29.516Z,101486.72
2022-10-06T01:42:59.509Z,101479.09
2022-10-06T01:45:27.396Z,101485.56
2022-10-06T01:47:54.099Z,101480.38
2022-10-06T01:50:21.585Z,101486.34
2022-10-06T01:52:48.237Z,101488.09
2022-10-06T01:55:15.269Z,101487.81
2022-10-06T01:57:43.553Z,101484.06
2022-10-06T02:00:12.378Z,101487.41
2022-10-06T02:02:42.996Z,101484.63
2022-10-06T02:05:11.072Z,101481.84
2022-10-06T02:07:41.675Z,101486.47
2022-10-06T02:10:09.264Z,101491.09
2022-10-06T02:12:36.602Z,101487.53
2022-10-06T02:15:03.929Z,101482.81
2022-10-06T02:17:30.580Z,101484.13
2022-10-06T02:19:57.462Z,101485.84
2022-10-06T02:22:24.377Z,101483.09
2022-10-06T02:24:57.127Z,101488.03
2022-10-06T02:27:29.381Z,101482.75
2022-10-06T02:30:00.030Z,101484.69
2022-10-06T02:32:40.879Z,101483.13
2022-10-06T02:35:13.946Z,101484.69
2022-10-06T02:37:47.559Z,101486.75
2022-10-06T02:40:25.169Z,101481.31
2022-10-06T02:42:58.489Z,101491.81
2022-10-06T02:45:25.682Z,101483.03
2022-10-06T02:47:58.019Z,101477.25
2022-10-06T02:50:31.394Z,101488.97
2022-10-06T02:53:00.177Z,101489.56
2022-10-06T02:55:35.599Z,101480.56
2022-10-06T02:58:03.632Z,101486.47
2022-10-06T03:00:37.041Z,101492.25
2022-10-06T03:03:05.710Z,101491.78
2022-10-06T03:05:33.570Z,101500.22
2022-10-06T03:08:03.951Z,101495.63
2022-10-06T03:10:30.923Z,101492.50
2022-10-06T03:13:04.350Z,101505.25
2022-10-06T03:15:35.188Z,101512.84
2022-10-06T03:18:07.071Z,101515.13
2022-10-06T03:20:49.860Z,101523.31
2022-10-06T03:23:18.225Z,101512.50
2022-10-06T03:26:01.299Z,101518.53
2022-10-06T03:28:30.552Z,101511.28
2022-10-06T03:31:07.561Z,101522.13
2022-10-06T03:33:39.047Z,101524.88
2022-10-06T03:36:16.736Z,101520.34
2022-10-06T03:38:48.660Z,101518.63
2022-10-06T03:41:23.379Z,101515.97
2022-10-06T03:43:56.074Z,101520.06
2022-10-06T03:46:32.145Z,101525.00
2022-10-06T03:49:14.456Z,101527.03
2022-10-06T03:51:47.517Z,101540.16
2022-10-06T03:54:28.082Z,101527.91
2022-10-06T03:57:00.428Z,101544.00
2022-10-06T03:59:35.127Z,101545.09
2022-10-06T04:02:05.551Z,101545.19
2022-10-06T04:04:39.920Z,101540.66
2022-10-06T04:07:12.875Z,101545.94
2022-10-06T04:09:48.563Z,101544.00
2022-10-06T04:12:29.140Z,101546.16
2022-10-06T04:15:00.462Z,101555.63
2022-10-06T04:17:41.985Z,101553.00
2022-10-06T04:20:12.537Z,101563.38
2022-10-06T04:22:48.606Z,101563.00
2022-10-06T04:25:23.061Z,101553.72
2022-10-06T04:27:55.538Z,101563.00
2022-10-06T04:30:30.203Z,101554.81
2022-10-06T04:32:57.314Z,101552.84
2022-10-06T04:35:27.728Z,101553.69
2022-10-06T04:37:56.822Z,101546.44
2022-10-06T04:40:25.139Z,101544.44
2022-10-06T04:43:04.811Z,101552.13
2022-10-06T04:45:40.328Z,101561.97
2022-10-06T04:48:12.922Z,101555.34
2022-10-06T04:50:55.966Z,101563.31
2022-10-06T04:53:26.301Z,101558.16
2022-10-06T04:56:16.159Z,101571.41
2022-10-06T04:58:50.473Z,101565.91
2022-10-06T05:01:30.569Z,101561.84
2022-10-06T05:04:08.223Z,101553.28
2022-10-06T05:06:46.569Z,101563.78
2022-10-06T05:09:24.015Z,101558.63
2022-10-06T05:11:58.879Z,101550.78
2022-10-06T05:14:33.508Z,101545.16
2022-10-06T05:17:00.969Z,101546.06
2022-10-06T05:19:36.706Z,101550.09
2022-10-06T05:22:05.363Z,101548.16
2022-10-06T05:24:38.141Z,101550.09
2022-10-06T05:27:09.155Z,101554.06
2022-10-06T05:29:39.669Z,101556.47
2022-10-06T05:32:19.568Z,101567.44
2022-10-06T05:34:54.701Z,101558.09
2022-10-06T05:37:25.448Z,101576.13
2022-10-06T05:40:04.583Z,101575.38
2022-10-06T05:42:43.549Z,101581.97
2022-10-06T05:45:15.789Z,101583.75
2022-10-06T05:48:01.261Z,101588.47
2022-10-06T05:50:35.606Z,101583.81
2022-10-06T05:53:24.214Z,101588.56
2022-10-06T05:55:55.021Z,101592.44
2022-10-06T05:58:21.827Z,101585.69
2022-10-06T06:00:58.843Z,101591.50
2022-10-06T06:03:34.861Z,101595.63
2022-10-06T06:06:02.309Z,101600.56
2022-10-06T06:08:33.395Z,101613.63
2022-10-06T06:11:17.234Z,101618.44
2022-10-06T06:13:51.049Z,101619.44
2022-10-06T06:16:24.737Z,101621.41
2022-10-06T06:18:55.902Z,101618.34
2022-10-06T06:21:29.062Z,101624.38
2022-10-06T06:24:01.689Z,101625.94
2022-10-06T06:26:37.229Z,101626.22
2022-10-06T06:29:13.449Z,101636.75
2022-10-06T06:31:47.911Z,101643.63
2022-10-06T06:34:21.219Z,101650.47
2022-10-06T06:36:55.670Z,101649.47
2022-10-06T06:39:32.039Z,101654.66
2022-10-06T06:42:12.172Z,101643.53
2022-10-06T06:44:50.893Z,101649.41
2022-10-06T06:47:46.179Z,101647.53
2022-10-06T06:50:14.076Z,101649.34
2022-10-06T06:52:51.111Z,101656.47
2022-10-06T06:55:34.958Z,101662.69
2022-10-06T06:58:16.408Z,101662.53
2022-10-06T07:00:46.645Z,101666.13
2022-10-06T07:03:52.556Z,101661.31
2022-10-06T07:06:27.118Z,101662.09
2022-10-06T07:09:23.895Z,101667.06
2022-10-06T07:11:59.815Z,101672.53
2022-10-06T07:14:34.441Z,101670.69
2022-10-06T07:17:29.021Z,101678.28
2022-10-06T07:20:20.706Z,101673.19
2022-10-06T07:23:08.316Z,101677.31
2022-10-06T07:25:46.552Z,101680.75
2022-10-06T07:28:17.577Z,101681.44
2022-10-06T07:30:46.859Z,101678.84
2022-10-06T07:33:23.986Z,101686.94
2022-10-06T07:35:54.641Z,101674.13
2022-10-06T07:38:27.111Z,101689.22
2022-10-06T07:43:57.023Z,101689.75
2022-10-06T07:46:29.473Z,101699.16
2022-10-06T07:49:05.752Z,101699.00
2022-10-06T07:51:35.759Z,101696.72
2022-10-06T07:54:26.576Z,101696.09
2022-10-06T07:57:09.924Z,101696.66
2022-10-06T07:59:43.099Z,101696.31
2022-10-06T08:02:12.717Z,101701.69
2022-10-06T08:04:50.300Z,101707.41
2022-10-06T08:07:20.450Z,101713.28
2022-10-06T08:09:51.845Z,101716.25
2022-10-06T08:12:34.860Z,101716.00
2022-10-06T08:15:06.998Z,101718.25
2022-10-06T08:17:47.455Z,101714.13
2022-10-06T08:20:19.092Z,101720.19
2022-10-06T08:22:48.568Z,101720.63
2022-10-06T08:25:15.837Z,101723.44
2022-10-06T08:27:53.533Z,101734.72
2022-10-06T08:30:27.899Z,101731.34
2022-10-06T08:33:05.278Z,101741.34
2022-10-06T08:35:38.667Z,101742.50
2022-10-06T08:38:10.678Z,101745.44
2022-10-06T08:40:46.491Z,101740.06
2022-10-06T08:43:22.548Z,101739.75
2022-10-06T08:46:03.650Z,101739.97
2022-10-06T08:48:41.878Z,101742.75
2022-10-06T08:51:22.527Z,101745.81
2022-10-06T08:54:38.654Z,101738.97
2022-10-06T08:57:28.239Z,101739.66
2022-10-06T08:59:59.206Z,101748.56
2022-10-06T09:02:40.513Z,101745.75
2022-10-06T09:05:13.275Z,101747.94
2022-10-06T09:08:05.752Z,101753.84
2022-10-06T09:11:06.772Z,101754.38
2022-10-06T09:13:42.189Z,101764.00
2022-10-06T09:16:17.739Z,101754.09
2022-10-06T09:19:07.576Z,101757.47
2022-10-06T09:21:57.816Z,101759.66
2022-10-06T09:24:54.043Z,101761.03
2022-10-06T09:27:38.755Z,101757.50
2022-10-06T09:30:11.288Z,101753.03
2022-10-06T09:33:03.519Z,101754.38
2022-10-06T09:36:10.466Z,101754.25
2022-10-06T09:38:49.762Z,101762.81
2022-10-06T09:41:25.216Z,101755.13
2022-10-06T09:44:01.724Z,101761.22
2022-10-06T09:46:44.060Z,101762.91
2022-10-06T09:49:21.221Z,101756.75
2022-10-06T09:52:12.990Z,101754.41
2022-10-06T09:54:46.921Z,101755.75
2022-10-06T09:57:22.180Z,101758.78
2022-10-06T09:59:49.170Z,101763.47
2022-10-06T10:02:27.255Z,101750.41
2022-10-06T10:04:58.251Z,101754.44
2022-10-06T10:07:30.739Z,101744.50
2022-10-06T10:10:24.494Z,101746.31
2022-10-06T10:12:58.153Z,101747.31
2022-10-06T10:15:51.313Z,101752.00
2022-10-06T10:18:31.410Z,101742.22
2022-10-06T10:21:08.341Z,101743.16
2022-10-06T10:23:43.449Z,101742.72
2022-10-06T10:26:33.068Z,101747.38
2022-10-06T10:29:24.050Z,101733.03
2022-10-06T10:32:17.297Z,101735.16
2022-10-06T10:35:08.673Z,101733.44
2022-10-06T10:37:49.339Z,101736.97
2022-10-06T10:40:59.951Z,101736.13
2022-10-06T10:43:44.723Z,101736.78
2022-10-06T10:46:33.591Z,101737.53
2022-10-06T10:49:16.528Z,101731.72
2022-10-06T10:51:53.367Z,101735.50
2022-10-06T10:54:31.763Z,101736.44
2022-10-06T10:57:12.431Z,101729.59
2022-10-06T11:00:07.716Z,101734.91
2022-10-06T11:02:38.691Z,101737.31
2022-10-06T11:05:25.304Z,101729.34
2022-10-06T11:08:08.229Z,101724.53
2022-10-06T11:10:56.413Z,101725.28
2022-10-06T11:13:48.208Z,101723.69
2022-10-06T11:16:33.277Z,101719.25
2022-10-06T11:19:16.549Z,101721.19
2022-10-06T11:22:21.691Z,101717.75
2022-10-06T11:28:20.917Z,101711.78
2022-10-06T11:31:03.800Z,101707.50
2022-10-06T11:34:04.860Z,101707.94
2022-10-06T11:36:59.571Z,101703.94
2022-10-06T11:39:53.955Z,101703.94
2022-10-06T11:42:42.360Z,101706.00
2022-10-06T11:45:15.996Z,101700.59
2022-10-06T11:48:22.986Z,101699.75
2022-10-06T11:50:58.046Z,101694.00
2022-10-06T11:53:26.986Z,101697.53
2022-10-06T11:56:36.790Z,101689.44
2022-10-06T11:59:13.838Z,101701.72
2022-10-06T12:01:49.814Z,101693.84
2022-10-06T12:04:29.035Z,101686.22
2022-10-06T12:07:01.456Z,101687.66
2022-10-06T12:09:44.643Z,101681.81
2022-10-06T12:12:20.587Z,101672.09
2022-10-06T12:16:58.263Z,101676.09
2022-10-06T12:18:30.721Z,101676.72
2022-10-06T12:21:08.618Z,101677.00
2022-10-06T12:23:58.526Z,101677.63
2022-10-06T12:26:36.891Z,101668.22
2022-10-06T12:29:24.445Z,101673.41
2022-10-06T12:32:22.150Z,101676.13
2022-10-06T12:35:14.054Z,101669.69
2022-10-06T12:37:43.000Z,101671.19
2022-10-06T12:40:47.461Z,101667.06
2022-10-06T12:43:16.811Z,101665.19
2022-10-06T12:45:48.927Z,101672.50
2022-10-06T12:48:22.652Z,101665.69
2022-10-06T12:50:58.996Z,101658.31
2022-10-06T12:53:37.591Z,101662.72
2022-10-06T12:56:28.417Z,101657.75
2022-10-06T12:58:57.861Z,101657.06
2022-10-06T13:01:35.969Z,101661.63
2022-10-06T13:04:35.726Z,101657.59
2022-10-06T13:07:12.981Z,101657.09
2022-10-06T13:09:53.270Z,101658.25
2022-10-06T13:12:27.969Z,101655.47
2022-10-06T13:15:19.661Z,101666.63
2022-10-06T13:17:51.079Z,101655.59
2022-10-06T13:20:25.386Z,101668.63
2022-10-06T13:23:02.938Z,101661.56
2022-10-06T13:25:57.751Z,101664.66
2022-10-06T13:28:32.054Z,101673.75
2022-10-06T13:31:02.982Z,101660.28
2022-10-06T13:33:43.732Z,101668.75
2022-10-06T13:36:17.466Z,101659.44
2022-10-06T13:38:47.379Z,101666.88
2022-10-06T13:41:47.961Z,101662.72
2022-10-06T13:44:20.262Z,101657.44
2022-10-06T13:47:02.570Z,101671.56
2022-10-06T13:49:43.234Z,101672.25
2022-10-06T13:52:34.133Z,101674.69
2022-10-06T13:55:17.001Z,101677.31
2022-10-06T13:58:06.819Z,101677.97
2022-10-06T14:01:01.433Z,101678.88
2022-10-06T14:03:43.045Z,101681.97
2022-10-06T14:06:36.196Z,101683.84
2022-10-06T14:09:13.517Z,101678.25
2022-10-06T14:11:43.389Z,101678.44
2022-10-06T14:14:22.333Z,101672.19
2022-10-06T14:16:55.944Z,101672.19
2022-10-06T14:19:47.966Z,101681.97
2022-10-06T14:22:36.884Z,101681.59
2022-10-06T14:25:16.523Z,101677.88
2022-10-06T14:27:51.116Z,101680.56
2022-10-06T14:30:19.316Z,101684.56
2022-10-06T14:32:53.394Z,101681.66
2022-10-06T14:35:26.723Z,101682.06
2022-10-06T14:37:54.765Z,101689.50
2022-10-06T14:40:26.342Z,101690.03
2022-10-06T14:42:53.731Z,101683.16
2022-10-06T14:45:23.338Z,101674.66
2022-10-06T14:47:54.269Z,101683.28
2022-10-06T14:50:31.148Z,101676.97
2022-10-06T14:53:06.936Z,101685.44
2022-10-06T14:55:40.719Z,101684.47
2022-10-06T14:58:08.889Z,101679.66
2022-10-06T15:00:37.797Z,101685.59
2022-10-06T15:03:07.467Z,101681.78
2022-10-06T15:05:56.561Z,101684.66
2022-10-06T15:08:31.082Z,101688.94
2022-10-06T15:11:04.051Z,101686.78
2022-10-06T15:13:32.623Z,101693.56
2022-10-06T15:16:00.199Z,101690.59
2022-10-06T15:18:27.842Z,101685.56
2022-10-06T15:21:01.608Z,101685.28
2022-10-06T15:23:33.352Z,101681.28
2022-10-06T15:26:19.778Z,101683.03
2022-10-06T15:29:04.657Z,101686.72
2022-10-06T15:31:47.795Z,101693.88
2022-10-06T15:34:28.778Z,101690.88
2022-10-06T15:37:00.750Z,101704.50
2022-10-06T15:39:32.126Z,101708.06
2022-10-06T15:42:02.543Z,101700.50
2022-10-06T15:44:37.253Z,101702.56
2022-10-06T15:47:06.323Z,101699.75
2022-10-06T15:49:48.211Z,101700.13
2022-10-06T15:52:20.010Z,101709.56
2022-10-06T15:54:53.953Z,101716.31
2022-10-06T15:57:22.629Z,101714.97
2022-10-06T15:59:51.001Z,101719.03
2022-10-06T16:02:21.273Z,101716.69
2022-10-06T16:05:04.740Z,101715.38
2022-10-06T16:07:35.494Z,101707.19
2022-10-06T16:10:07.665Z,101724.69
2022-10-06T16:12:34.785Z,101724.56
2022-10-06T16:15:06.681Z,101734.84
2022-10-06T16:17:35.281Z,101730.31
2022-10-06T16:20:06.519Z,101739.06
2022-10-06T16:22:42.357Z,101741.09
2022-10-06T16:25:14.335Z,101736.94
2022-10-06T16:27:43.243Z,101738.13
2022-10-06T16:30:10.134Z,101738.00
2022-10-06T16:32:43.131Z,101736.81
2022-10-06T16:35:18.052Z,101737.50
2022-10-06T16:37:50.905Z,101743.06
2022-10-06T16:40:23.928Z,101740.41
2022-10-06T16:43:02.358Z,101745.66
2022-10-06T16:45:33.524Z,101749.69
2022-10-06T16:48:11.488Z,101752.38
2022-10-06T16:50:44.856Z,101752.84
2022-10-06T16:53:19.073Z,101764.28
2022-10-06T16:55:45.709Z,101764.66
2022-10-06T16:58:21.119Z,101760.44
2022-10-06T17:00:58.776Z,101768.16
2022-10-06T17:03:35.901Z,101765.16
2022-10-06T17:06:15.530Z,101768.16
2022-10-06T17:08:49.497Z,101770.69
2022-10-06T17:11:27.087Z,101771.00
2022-10-06T17:13:56.362Z,101774.03
2022-10-06T17:16:32.772Z,101776.22
2022-10-06T17:19:03.058Z,101775.19
2022-10-06T17:21:46.681Z,101781.91
2022-10-06T17:24:18.432Z,101781.56
2022-10-06T17:26:51.373Z,101777.88
2022-10-06T17:29:22.528Z,101785.06
2022-10-06T17:32:00.770Z,101781.56
2022-10-06T17:34:34.287Z,101786.91
2022-10-06T17:37:03.851Z,101784.72
2022-10-06T17:39:43.570Z,101786.88
2022-10-06T17:42:15.336Z,101784.50
2022-10-06T17:44:41.996Z,101789.81
2022-10-06T17:47:12.675Z,101784.97
2022-10-06T17:49:40.141Z,101785.72
2022-10-06T17:52:11.239Z,101783.25
2022-10-06T17:54:42.652Z,101784.75
2022-10-06T17:57:10.973Z,101786.41
2022-10-06T17:59:49.254Z,101789.75
2022-10-06T18:02:20.104Z,101792.09
2022-10-06T18:04:52.051Z,101787.25
2022-10-06T18:07:23.836Z,101793.56
2022-10-06T18:10:10.023Z,101789.34
2022-10-06T18:12:39.363Z,101789.50
2022-10-06T18:15:07.944Z,101790.53
2022-10-06T18:17:43.520Z,101792.66
2022-10-06T18:20:11.527Z,101789.88
2022-10-06T18:22:38.612Z,101795.72
2022-10-06T18:25:16.841Z,101791.16
2022-10-06T18:27:43.984Z,101802.91
2022-10-06T18:30:11.444Z,101801.59
2022-10-06T18:35:00.619Z,101809.09
2022-10-06T18:38:28.108Z,101813.97
2022-10-06T18:41:04.731Z,101810.53
2022-10-06T18:43:36.617Z,101815.72
2022-10-06T18:46:26.261Z,101819.34
2022-10-06T18:48:58.030Z,101817.81
2022-10-06T18:51:38.839Z,101817.66
2022-10-06T18:54:14.838Z,101826.06
2022-10-06T18:56:59.425Z,101820.81
2022-10-06T18:59:31.936Z,101827.41
2022-10-06T19:02:04.308Z,101826.16
2022-10-06T19:04:41.216Z,101828.13
2022-10-06T19:07:11.689Z,101824.78
2022-10-06T19:09:46.801Z,101821.34
2022-10-06T19:12:19.997Z,101819.66
2022-10-06T19:14:50.968Z,101816.22
2022-10-06T19:17:28.253Z,101820.97
2022-10-06T19:20:06.371Z,101816.75
2022-10-06T19:22:39.558Z,101820.56
2022-10-06T19:25:15.431Z,101827.38
2022-10-06T19:27:49.814Z,101825.22
2022-10-06T19:30:21.384Z,101828.53
2022-10-06T19:32:58.641Z,101829.50
2022-10-06T19:35:26.627Z,101829.13
2022-10-06T19:37:53.743Z,101841.28
2022-10-06T19:40:23.130Z,101833.84
2022-10-06T19:42:56.267Z,101838.22
2022-10-06T19:45:23.989Z,101841.28
2022-10-06T19:47:58.986Z,101840.56
2022-10-06T19:50:29.392Z,101844.41
2022-10-06T19:52:57.469Z,101839.34
2022-10-06T19:55:31.179Z,101834.56
2022-10-06T19:58:08.728Z,101843.81
2022-10-06T20:00:44.942Z,101843.25
2022-10-06T20:03:18.223Z,101844.25
2022-10-06T20:05:58.755Z,101844.16
2022-10-06T20:08:32.165Z,101842.75
2022-10-06T20:11:12.303Z,101837.13
2022-10-06T20:13:42.874Z,101845.22
2022-10-06T20:16:20.299Z,101840.03
2022-10-06T20:18:58.290Z,101835.03
2022-10-06T20:21:37.894Z,101833.09
2022-10-06T20:24:08.130Z,101830.16
2022-10-06T20:26:43.254Z,101834.06
2022-10-06T20:29:17.145Z,101831.44
2022-10-06T20:31:56.975Z,101838.91
2022-10-06T20:34:27.879Z,101833.88
2022-10-06T20:37:09.405Z,101835.91
2022-10-06T20:40:01.282Z,101839.25
2022-10-06T20:42:37.352Z,101841.09
2022-10-06T20:45:09.387Z,101836.06
2022-10-06T20:47:43.396Z,101828.44
2022-10-06T20:50:12.604Z,101830.06
2022-10-06T20:52:42.191Z,101827.50
2022-10-06T20:55:13.083Z,101824.41
2022-10-06T20:57:46.347Z,101821.84
2022-10-06T21:00:25.330Z,101819.47
2022-10-06T21:02:59.783Z,101821.59
2022-10-06T21:05:31.660Z,101817.94
2022-10-06T21:07:59.278Z,101818.53
2022-10-06T21:10:30.439Z,101816.59
2022-10-06T21:13:00.374Z,101821.41
2022-10-06T21:15:36.268Z,101818.84
2022-10-06T21:18:10.723Z,101815.66
2022-10-06T21:20:45.406Z,101820.44
2022-10-06T21:23:15.359Z,101807.06
2022-10-06T21:25:46.208Z,101806.97
2022-10-06T21:28:30.110Z,101811.63
2022-10-06T21:31:04.764Z,101810.78
2022-10-06T21:33:42.920Z,101816.41
2022-10-06T21:36:16.471Z,101816.03
2022-10-06T21:38:48.882Z,101810.28
2022-10-06T21:41:41.314Z,101806.63
2022-10-06T21:44:18.802Z,101804.66
2022-10-06T21:46:48.887Z,101805.53
2022-10-06T21:49:20.132Z,101797.78
2022-10-06T21:51:49.811Z,101813.94
2022-10-06T21:54:23.466Z,101811.44
2022-10-06T21:56:51.324Z,101817.50
2022-10-06T21:59:18.203Z,101817.34
2022-10-06T22:01:46.700Z,101806.81
2022-10-06T22:04:14.673Z,101812.25
2022-10-06T22:06:43.072Z,101809.47
2022-10-06T22:09:14.024Z,101810.88
2022-10-06T22:11:42.468Z,101805.13
2022-10-06T22:14:12.253Z,101806.09
2022-10-06T22:16:39.557Z,101802.75
2022-10-06T22:19:08.361Z,101807.22
2022-10-06T22:21:40.350Z,101811.00
2022-10-06T22:24:09.525Z,101813.28
2022-10-06T22:26:38.429Z,101816.78
2022-10-06T22:29:08.176Z,101812.41
2022-10-06T22:31:36.886Z,101813.28
2022-10-06T22:34:06.578Z,101797.41
2022-10-06T22:36:34.534Z,101804.41
2022-10-06T22:39:01.299Z,101809.50
2022-10-06T22:41:28.439Z,101802.16
2022-10-06T22:43:59.943Z,101799.50
2022-10-06T22:46:29.250Z,101803.56
2022-10-06T22:48:56.805Z,101802.75
2022-10-06T22:51:24.041Z,101796.84
2022-10-06T22:53:58.763Z,101798.22
2022-10-06T22:56:27.091Z,101801.56
2022-10-06T22:58:53.971Z,101805.06
2022-10-06T23:01:21.189Z,101802.25
2022-10-06T23:03:48.146Z,101798.16
2022-10-06T23:06:17.186Z,101791.38
2022-10-06T23:08:44.675Z,101791.84
2022-10-06T23:11:14.209Z,101790.44
2022-10-06T23:13:43.227Z,101795.50
2022-10-06T23:16:12.786Z,101794.84
2022-10-06T23:18:42.114Z,101790.47
2022-10-06T23:21:11.505Z,101797.75
2022-10-06T23:23:38.186Z,101803.50
2022-10-06T23:26:11.053Z,101802.81
2022-10-06T23:28:37.994Z,101806.56
2022-10-06T23:31:06.317Z,101789.28
2022-10-06T23:33:33.467Z,101786.59
2022-10-06T23:36:02.420Z,101790.94
2022-10-06T23:38:29.330Z,101796.56
2022-10-06T23:40:56.265Z,101793.59
2022-10-06T23:43:23.484Z,101795.72
2022-10-06T23:45:50.483Z,101805.19
2022-10-06T23:48:17.787Z,101802.69
2022-10-06T23:50:58.276Z,101798.38
2022-10-06T23:53:25.735Z,101802.28
2022-10-06T23:55:52.432Z,101804.56
2022-10-06T23:58:20.704Z,101803.16
